Current Weather

Abadan

Abadan, Iran (OIAA)

Report from: Tuesday, August 16, 2022 7:00 AM UTC
Current time: Tuesday, August 16, 2022 7:58 AM UTC

Nearby weather
Weather history
Weather forecast

Temperature41.0°C (105.8°F)
Heat index39.2°C (102.5°F)
Dew point9.0°C (48.2°F)
Winds 8 kts (4.1 m/s, 9.2 mph) North-Northwest (330°)
Clouds Sky clear
Altimeter29.47 in.Hg (998 mB)
Relative humidity15 %
Density altitude3,590 ft. (1,094 m)
Remarks Ceiling and visibility OK
Flight conditions Visual Meteorological Conditions
Raw dataOIAA 160700Z 33008KT CAVOK 41/09 Q0998
An error has occurred. This application may no longer respond until reloaded. Reload 🗙